Time;durP1;ratioP1;P1;durP2;ratioP2;P2;SDS_P1;SDS_P2;PMS_P1;PMS_P2;Temp;Humidity;BMP_temperature;BMP_pressure;BME280_temperature;BME280_humidity;BME280_pressure;Samples;Min_cycle;Max_cycle;Signal;HPM_P1;HPM_P2
2024/01/23 05:29:49;;;;;;;13.73;3.97;;;6.60;99.90;;;;;;5868442;22;20441;-64
2024/01/23 05:32:16;;;;;;;13.82;3.20;;;6.60;99.90;;;;;;5002870;28;20527;-64
2024/01/23 05:34:43;;;;;;;10.60;3.80;;;6.60;99.90;;;;;;5006681;28;20531;-65
2024/01/23 05:37:11;;;;;;;10.27;2.80;;;6.60;99.90;;;;;;5010944;28;21179;-68
2024/01/23 05:39:38;;;;;;;8.60;2.70;;;6.60;99.90;;;;;;5007764;28;20424;-65
2024/01/23 05:42:06;;;;;;;13.37;3.43;;;6.60;99.90;;;;;;4997018;28;20572;-64
2024/01/23 05:44:32;;;;;;;9.45;3.78;;;6.60;99.90;;;;;;4993915;28;20964;-64
2024/01/23 05:47:00;;;;;;;11.15;3.65;;;6.60;99.90;;;;;;5000577;28;20442;-66
2024/01/23 05:49:27;;;;;;;11.00;3.60;;;6.60;99.90;;;;;;5005287;28;20875;-65
2024/01/23 05:51:54;;;;;;;10.48;3.00;;;6.50;99.90;;;;;;4987961;28;20897;-64
2024/01/23 05:54:21;;;;;;;9.63;3.38;;;6.50;99.90;;;;;;5003920;28;20416;-65
2024/01/23 05:56:48;;;;;;;11.85;3.10;;;6.50;99.90;;;;;;4990357;28;20409;-65
2024/01/23 05:59:15;;;;;;;9.57;3.30;;;6.50;99.90;;;;;;4997961;28;20434;-64
2024/01/23 06:01:42;;;;;;;12.00;3.70;;;6.50;99.90;;;;;;4996544;28;20428;-65
2024/01/23 06:04:10;;;;;;;7.38;2.90;;;6.40;99.90;;;;;;5001578;28;20861;-65
2024/01/23 06:06:40;;;;;;;6.57;2.80;;;6.40;99.90;;;;;;4994784;28;20410;-66
2024/01/23 06:09:07;;;;;;;10.07;3.67;;;6.40;99.90;;;;;;4994770;28;20426;-66
2024/01/23 06:11:34;;;;;;;14.85;3.25;;;6.40;99.90;;;;;;4990495;28;20600;-64
2024/01/23 06:14:01;;;;;;;12.80;3.13;;;6.40;99.90;;;;;;4987661;28;20927;-64
2024/01/23 06:16:27;;;;;;;10.73;3.00;;;6.40;99.90;;;;;;4994551;28;20450;-64
2024/01/23 06:18:55;;;;;;;11.38;2.60;;;6.40;99.90;;;;;;4992687;28;20743;-65
2024/01/23 06:21:23;;;;;;;13.52;2.90;;;6.40;99.90;;;;;;4987632;28;20834;-63
2024/01/23 06:23:49;;;;;;;10.80;3.33;;;6.30;99.90;;;;;;4985835;28;20932;-65
2024/01/23 06:26:16;;;;;;;12.70;3.40;;;6.30;99.90;;;;;;4991191;28;20856;-64
2024/01/23 06:28:43;;;;;;;11.67;2.90;;;6.30;99.90;;;;;;4990054;28;20453;-64
2024/01/23 06:31:10;;;;;;;11.38;2.75;;;6.30;99.90;;;;;;4985252;28;20443;-64
2024/01/23 06:33:36;;;;;;;11.02;2.83;;;6.30;99.90;;;;;;4986335;28;20441;-65
2024/01/23 06:36:03;;;;;;;7.75;2.60;;;6.40;99.90;;;;;;4995141;28;20426;-64
2024/01/23 06:38:32;;;;;;;9.15;2.67;;;6.30;99.90;;;;;;4994902;28;20423;-66
2024/01/23 06:40:58;;;;;;;12.07;2.45;;;6.30;99.90;;;;;;5000525;28;20417;-64
2024/01/23 06:43:25;;;;;;;8.30;3.00;;;6.40;99.90;;;;;;4999075;28;20529;-64
2024/01/23 06:45:52;;;;;;;10.48;2.63;;;6.40;99.90;;;;;;5001408;28;20419;-65
2024/01/23 06:48:18;;;;;;;7.03;2.53;;;6.40;99.90;;;;;;5002335;28;20455;-65
2024/01/23 06:50:45;;;;;;;11.85;4.00;;;6.40;99.90;;;;;;4996329;28;20442;-64
2024/01/23 06:53:12;;;;;;;9.77;3.00;;;6.30;99.90;;;;;;4999832;28;20486;-65
2024/01/23 06:55:40;;;;;;;10.95;3.00;;;6.30;99.90;;;;;;5002871;28;20507;-64
2024/01/23 06:58:07;;;;;;;9.93;3.00;;;6.30;99.90;;;;;;4998570;28;20424;-65
2024/01/23 07:00:33;;;;;;;11.00;3.30;;;6.20;99.90;;;;;;4992794;28;20445;-66
2024/01/23 07:03:00;;;;;;;11.70;3.15;;;6.30;99.90;;;;;;4992816;28;20492;-65
2024/01/23 07:05:27;;;;;;;13.07;3.28;;;6.30;99.90;;;;;;4999777;28;20425;-65
2024/01/23 07:07:55;;;;;;;8.75;2.30;;;6.30;99.90;;;;;;4987293;28;20426;-65
2024/01/23 07:10:21;;;;;;;8.95;2.55;;;6.30;99.90;;;;;;4986098;28;20490;-65
2024/01/23 07:12:49;;;;;;;9.60;2.90;;;6.30;99.90;;;;;;4992252;28;20435;-66
2024/01/23 07:15:16;;;;;;;13.32;3.45;;;6.30;99.90;;;;;;4988423;28;20426;-67
2024/01/23 07:17:43;;;;;;;12.18;4.13;;;6.30;99.90;;;;;;4999036;28;20423;-65
2024/01/23 07:20:11;;;;;;;15.40;3.28;;;6.20;99.90;;;;;;4998243;28;20422;-65
2024/01/23 07:22:37;;;;;;;11.80;3.47;;;6.20;99.90;;;;;;4996678;28;20440;-65
2024/01/23 07:25:05;;;;;;;9.65;2.88;;;6.20;99.90;;;;;;4989534;28;20907;-65
2024/01/23 07:27:32;;;;;;;11.13;3.00;;;6.20;99.90;;;;;;4998474;28;20937;-64
2024/01/23 07:30:00;;;;;;;8.35;2.90;;;6.20;99.90;;;;;;5002768;28;20468;-65
2024/01/23 07:32:27;;;;;;;12.38;3.28;;;6.20;99.90;;;;;;4994383;28;20405;-65
2024/01/23 07:34:53;;;;;;;10.40;3.20;;;6.20;99.90;;;;;;4997749;28;21081;-65
2024/01/23 07:37:20;;;;;;;11.07;2.80;;;6.20;99.90;;;;;;4992552;28;20450;-68
2024/01/23 07:39:49;;;;;;;10.90;3.40;;;6.20;99.90;;;;;;5004642;28;20409;-65
2024/01/23 07:42:15;;;;;;;14.07;3.40;;;6.20;99.90;;;;;;5004001;28;20438;-65
2024/01/23 07:44:43;;;;;;;10.23;3.10;;;6.20;99.90;;;;;;5010853;28;20507;-66
2024/01/23 07:47:11;;;;;;;11.43;3.20;;;6.10;99.90;;;;;;4996737;28;20884;-64
2024/01/23 07:49:38;;;;;;;11.15;2.75;;;6.20;99.90;;;;;;5005200;28;20436;-69
2024/01/23 07:52:05;;;;;;;10.48;3.47;;;6.20;99.90;;;;;;4995610;28;20491;-65
2024/01/23 07:54:33;;;;;;;10.93;3.10;;;6.20;99.90;;;;;;4992076;28;20426;-64
2024/01/23 07:57:00;;;;;;;12.00;3.35;;;6.20;99.90;;;;;;4995195;28;20472;-65
2024/01/23 07:59:26;;;;;;;9.45;3.53;;;6.20;99.90;;;;;;4987805;28;20492;-64
2024/01/23 08:01:53;;;;;;;13.13;3.40;;;6.20;99.90;;;;;;5006400;28;20429;-65
2024/01/23 08:04:21;;;;;;;9.07;3.13;;;6.20;99.90;;;;;;5006432;28;20430;-65
2024/01/23 08:06:48;;;;;;;14.95;8.15;;;6.30;99.90;;;;;;4987694;28;20430;-64
2024/01/23 08:09:15;;;;;;;11.45;5.20;;;6.40;99.90;;;;;;4988841;28;20749;-64
2024/01/23 08:11:41;;;;;;;9.13;4.10;;;6.60;99.90;;;;;;5004500;28;20443;-66
2024/01/23 08:14:08;;;;;;;10.13;3.17;;;6.80;99.90;;;;;;4990062;28;20505;-65
2024/01/23 08:16:35;;;;;;;9.17;2.70;;;6.90;99.90;;;;;;4993732;28;20832;-66
2024/01/23 08:19:02;;;;;;;10.07;2.72;;;6.80;99.90;;;;;;4984221;28;20425;-63
2024/01/23 08:21:31;;;;;;;11.38;3.00;;;6.80;99.90;;;;;;5014786;23;20433;-75
2024/01/23 08:23:57;;;;;;;8.93;3.25;;;6.80;99.90;;;;;;5012655;28;20427;-75
2024/01/23 08:26:24;;;;;;;9.80;2.85;;;6.80;99.90;;;;;;5007500;28;20431;-74
2024/01/23 08:28:51;;;;;;;7.87;2.60;;;6.80;99.90;;;;;;5010566;28;20436;-75
2024/01/23 08:31:18;;;;;;;11.37;3.10;;;6.80;99.90;;;;;;4998683;28;20422;-75
2024/01/23 08:33:45;;;;;;;13.82;3.50;;;6.90;99.90;;;;;;4988160;28;20449;-76
2024/01/23 08:36:12;;;;;;;9.90;3.10;;;7.00;99.90;;;;;;4988622;28;20475;-75
2024/01/23 08:38:41;;;;;;;11.88;3.10;;;7.00;99.90;;;;;;4996093;28;20412;-74
2024/01/23 08:41:07;;;;;;;8.83;3.20;;;7.00;99.90;;;;;;4989217;28;20426;-75
2024/01/23 08:43:35;;;;;;;12.07;2.90;;;7.20;99.90;;;;;;4983088;28;20426;-74
2024/01/23 08:46:02;;;;;;;9.98;4.28;;;7.20;99.90;;;;;;4979946;28;20510;-73
2024/01/23 08:48:30;;;;;;;9.25;3.00;;;7.30;99.90;;;;;;4987352;28;20516;-73
2024/01/23 08:50:57;;;;;;;10.23;2.90;;;7.40;99.90;;;;;;4989246;28;20418;-74
2024/01/23 08:53:23;;;;;;;10.27;3.30;;;7.50;99.90;;;;;;4992849;28;20480;-74
2024/01/23 08:55:51;;;;;;;9.53;3.10;;;7.60;99.90;;;;;;4997370;28;20468;-74
2024/01/23 08:58:19;;;;;;;9.27;3.10;;;7.60;99.90;;;;;;4993324;28;20428;-73
2024/01/23 09:00:46;;;;;;;8.93;2.83;;;7.70;99.90;;;;;;4992849;28;20597;-74
2024/01/23 09:03:13;;;;;;;11.43;3.50;;;7.80;99.90;;;;;;4992601;28;20436;-73
2024/01/23 09:05:40;;;;;;;12.27;3.90;;;7.80;99.90;;;;;;4993291;28;20950;-75
2024/01/23 09:08:06;;;;;;;14.60;4.70;;;7.90;99.90;;;;;;4992770;28;20438;-74
2024/01/23 09:10:33;;;;;;;8.32;3.20;;;7.90;99.90;;;;;;4991828;28;20418;-73
2024/01/23 09:13:01;;;;;;;9.10;3.72;;;8.00;99.90;;;;;;4991605;28;20417;-73
2024/01/23 09:15:28;;;;;;;12.48;4.10;;;8.00;99.90;;;;;;4989458;28;20440;-73
2024/01/23 09:17:55;;;;;;;9.25;3.63;;;8.20;99.90;;;;;;4994632;28;20419;-74
2024/01/23 09:20:21;;;;;;;12.50;3.50;;;8.20;99.90;;;;;;4994182;28;20434;-74
2024/01/23 09:22:50;;;;;;;12.60;3.95;;;8.30;99.90;;;;;;4993027;28;20418;-75
2024/01/23 09:25:17;;;;;;;13.35;5.00;;;8.30;99.90;;;;;;4991381;28;20864;-74
2024/01/23 09:27:44;;;;;;;10.43;3.30;;;8.40;99.90;;;;;;4992507;28;20427;-75
2024/01/23 09:30:14;;;;;;;12.40;3.70;;;8.40;99.90;;;;;;4991308;28;20509;-73
2024/01/23 09:32:40;;;;;;;12.13;3.97;;;8.40;99.90;;;;;;4989829;28;20434;-73
2024/01/23 09:35:08;;;;;;;12.85;3.90;;;8.40;99.90;;;;;;4990335;28;20422;-73
2024/01/23 09:37:34;;;;;;;10.38;3.53;;;8.50;99.90;;;;;;4990166;28;20792;-74
2024/01/23 09:40:01;;;;;;;10.90;3.55;;;8.50;99.90;;;;;;4989832;28;20438;-75
2024/01/23 09:42:28;;;;;;;15.55;4.10;;;8.60;99.90;;;;;;4991294;28;20963;-75
2024/01/23 09:44:56;;;;;;;13.70;3.95;;;8.70;99.90;;;;;;4994921;28;20441;-74
2024/01/23 09:47:25;;;;;;;16.00;4.03;;;8.70;99.90;;;;;;4986236;28;20662;-74
2024/01/23 09:49:53;;;;;;;12.35;3.95;;;8.80;99.90;;;;;;4986840;28;20936;-73
2024/01/23 09:52:21;;;;;;;12.82;4.35;;;8.90;99.90;;;;;;4989094;28;20916;-74
2024/01/23 09:54:48;;;;;;;11.25;3.60;;;8.90;99.90;;;;;;4989067;28;20413;-74
2024/01/23 09:57:15;;;;;;;12.05;3.85;;;8.90;99.90;;;;;;4992737;28;20497;-75
2024/01/23 09:59:41;;;;;;;12.82;4.20;;;9.00;99.90;;;;;;4989644;28;20457;-73
2024/01/23 10:02:10;;;;;;;11.77;4.50;;;9.10;99.90;;;;;;4989464;28;20801;-73
2024/01/23 10:04:38;;;;;;;10.90;3.78;;;9.20;99.90;;;;;;4987112;28;20851;-72
2024/01/23 10:07:08;;;;;;;12.23;4.50;;;9.30;99.90;;;;;;4992735;28;20426;-72
2024/01/23 10:09:36;;;;;;;15.93;4.32;;;9.40;99.90;;;;;;4991010;28;20446;-71
2024/01/23 10:12:03;;;;;;;14.63;4.40;;;9.30;99.90;;;;;;4991554;28;20509;-71
2024/01/23 10:14:31;;;;;;;15.38;4.32;;;9.30;99.90;;;;;;4991289;28;20796;-71
2024/01/23 10:16:58;;;;;;;14.23;4.30;;;9.40;99.90;;;;;;4990697;28;20425;-71
2024/01/23 10:19:24;;;;;;;8.82;3.40;;;9.40;99.90;;;;;;4989694;28;20793;-72
2024/01/23 10:21:54;;;;;;;13.75;4.05;;;9.50;99.90;;;;;;4982274;28;20438;-71
2024/01/23 10:24:21;;;;;;;12.18;4.07;;;9.60;99.90;;;;;;4990133;28;20414;-71
2024/01/23 10:26:48;;;;;;;10.93;4.07;;;9.60;99.90;;;;;;4988722;28;20924;-72
2024/01/23 10:29:14;;;;;;;14.00;4.45;;;9.60;99.90;;;;;;4990671;28;20442;-71
2024/01/23 10:31:42;;;;;;;12.90;4.00;;;9.80;99.90;;;;;;4989021;28;20423;-70
2024/01/23 10:34:12;;;;;;;10.05;4.95;;;9.80;99.90;;;;;;4993206;28;20417;-70
2024/01/23 10:36:39;;;;;;;12.18;4.07;;;9.90;99.90;;;;;;4990507;28;20421;-70
2024/01/23 10:39:10;;;;;;;13.70;4.60;;;9.90;99.90;;;;;;4992319;28;20426;-70
2024/01/23 10:41:38;;;;;;;10.32;3.90;;;9.80;99.90;;;;;;4991329;28;20901;-71
2024/01/23 10:44:06;;;;;;;11.30;3.85;;;9.70;99.90;;;;;;4999338;28;20410;-70
2024/01/23 10:46:34;;;;;;;12.77;3.90;;;9.70;99.90;;;;;;4990522;28;20418;-70
2024/01/23 10:49:02;;;;;;;9.35;3.70;;;9.80;99.90;;;;;;4990343;28;20442;-70
2024/01/23 10:51:31;;;;;;;10.90;3.63;;;9.80;99.90;;;;;;4993354;28;20425;-71
2024/01/23 10:54:06;;;;;;;9.48;3.47;;;9.80;99.90;;;;;;4993603;28;20498;-71
2024/01/23 10:56:42;;;;;;;12.23;5.10;;;9.80;99.90;;;;;;4995481;28;20777;-71
2024/01/23 10:59:16;;;;;;;10.93;3.50;;;9.90;99.90;;;;;;4990399;28;20410;-71
2024/01/23 11:01:45;;;;;;;9.05;4.13;;;9.70;99.90;;;;;;4989542;28;20801;-70
2024/01/23 11:04:11;;;;;;;10.10;3.33;;;9.70;99.90;;;;;;4990575;28;20422;-72
2024/01/23 11:06:46;;;;;;;9.95;3.78;;;9.90;99.90;;;;;;4999690;28;20418;-70
2024/01/23 11:09:16;;;;;;;11.87;4.20;;;10.00;99.90;;;;;;4992961;28;20438;-69
2024/01/23 11:11:53;;;;;;;8.25;3.22;;;10.20;99.90;;;;;;4985948;28;20419;-71
2024/01/23 11:14:25;;;;;;;11.35;3.55;;;10.20;99.30;;;;;;4989481;28;20426;-71
2024/01/23 11:17:07;;;;;;;11.75;3.60;;;10.10;99.90;;;;;;4986682;28;20520;-71
2024/01/23 11:19:35;;;;;;;12.25;4.47;;;10.10;99.60;;;;;;4993543;28;20500;-71
2024/01/23 11:22:02;;;;;;;9.23;3.30;;;10.20;98.80;;;;;;4989721;28;20476;-71
2024/01/23 11:24:40;;;;;;;10.00;3.70;;;10.10;99.60;;;;;;4981659;28;20540;-71
2024/01/23 11:27:09;;;;;;;12.13;3.90;;;10.20;99.00;;;;;;4989215;28;20430;-71
2024/01/23 11:29:36;;;;;;;9.13;3.40;;;10.20;98.60;;;;;;4988367;28;20664;-71
2024/01/23 11:32:16;;;;;;;11.55;3.40;;;10.10;98.20;;;;;;4990398;28;20438;-71
2024/01/23 11:34:43;;;;;;;12.73;3.58;;;10.00;99.00;;;;;;4983208;28;20473;-71
2024/01/23 11:37:48;;;;;;;13.90;3.70;;;9.80;99.80;;;;;;4989950;28;20518;-71
2024/01/23 11:40:36;;;;;;;11.52;3.67;;;9.90;99.10;;;;;;4991127;28;20409;-73
2024/01/23 11:43:06;;;;;;;10.27;3.50;;;10.20;98.70;;;;;;4989637;28;20972;-75
2024/01/23 11:45:35;;;;;;;11.40;3.70;;;10.40;98.30;;;;;;4988932;28;20421;-72
2024/01/23 11:48:04;;;;;;;11.13;3.00;;;10.30;96.30;;;;;;4989476;28;20790;-73
2024/01/23 11:50:32;;;;;;;9.85;3.40;;;10.20;97.00;;;;;;4987914;28;20847;-74
2024/01/23 11:53:01;;;;;;;10.68;3.80;;;10.10;98.00;;;;;;4988662;28;20784;-74
2024/01/23 11:55:28;;;;;;;9.10;2.72;;;10.10;98.10;;;;;;4989114;28;20422;-73
2024/01/23 11:57:56;;;;;;;11.55;3.63;;;10.10;97.40;;;;;;4991991;28;20656;-73
2024/01/23 12:00:26;;;;;;;10.82;3.35;;;10.10;97.70;;;;;;4989682;28;20550;-73
2024/01/23 12:02:54;;;;;;;11.07;4.13;;;10.10;98.40;;;;;;4989365;28;20434;-73
2024/01/23 12:05:21;;;;;;;12.32;3.53;;;10.20;97.30;;;;;;4988460;28;20429;-73
2024/01/23 12:07:48;;;;;;;10.20;3.20;;;10.10;96.30;;;;;;4986929;28;20881;-73
2024/01/23 12:10:17;;;;;;;9.73;3.30;;;10.00;96.80;;;;;;4989292;28;20492;-74
2024/01/23 12:12:44;;;;;;;9.75;3.15;;;9.90;97.00;;;;;;4989124;28;20419;-73
2024/01/23 12:15:11;;;;;;;12.52;3.10;;;9.90;98.10;;;;;;4988652;28;20415;-74
2024/01/23 12:17:46;;;;;;;9.48;3.15;;;9.80;97.70;;;;;;4989007;28;20414;-74
2024/01/23 12:20:13;;;;;;;12.05;4.13;;;9.70;98.40;;;;;;4990347;28;20415;-73
2024/01/23 12:22:40;;;;;;;11.32;3.58;;;9.60;99.00;;;;;;4987987;28;20429;-74
2024/01/23 12:25:10;;;;;;;9.32;3.20;;;9.80;98.90;;;;;;4988981;28;20418;-74
2024/01/23 12:27:36;;;;;;;12.15;4.22;;;9.80;98.30;;;;;;4994126;28;20433;-74
2024/01/23 12:30:04;;;;;;;12.07;3.78;;;9.80;98.70;;;;;;4992593;28;20441;-74
2024/01/23 12:32:31;;;;;;;12.35;3.50;;;9.90;98.50;;;;;;4992571;28;20469;-73
2024/01/23 12:34:59;;;;;;;12.00;4.10;;;9.90;98.00;;;;;;4997624;28;20438;-74
2024/01/23 12:37:28;;;;;;;10.82;3.72;;;9.90;98.40;;;;;;4996114;28;20502;-73
2024/01/23 12:39:55;;;;;;;8.38;3.00;;;9.90;99.20;;;;;;4990113;28;20523;-73
2024/01/23 12:42:23;;;;;;;7.03;3.10;;;9.80;98.20;;;;;;4992751;28;20430;-75
2024/01/23 12:44:50;;;;;;;11.82;3.70;;;9.80;98.90;;;;;;4989695;28;20422;-72
2024/01/23 12:47:16;;;;;;;9.48;3.42;;;9.80;98.90;;;;;;4996314;28;20461;-74
2024/01/23 12:49:46;;;;;;;12.25;3.50;;;9.80;99.20;;;;;;4995233;28;20927;-74
2024/01/23 12:52:20;;;;;;;12.32;3.10;;;9.90;99.30;;;;;;5005020;28;20420;-76
2024/01/23 12:54:47;;;;;;;10.00;3.20;;;9.90;98.70;;;;;;4997261;28;20448;-74
2024/01/23 12:57:14;;;;;;;8.67;3.10;;;9.90;98.20;;;;;;4994381;28;20425;-74
2024/01/23 12:59:41;;;;;;;9.03;3.60;;;9.90;97.70;;;;;;4997537;28;20409;-75
2024/01/23 13:02:08;;;;;;;9.38;3.47;;;9.80;98.30;;;;;;4997086;28;20423;-75
2024/01/23 13:04:34;;;;;;;9.38;3.42;;;9.90;98.10;;;;;;4992783;28;20958;-75
2024/01/23 13:07:01;;;;;;;8.90;3.33;;;9.90;97.70;;;;;;4992463;28;20428;-68
2024/01/23 13:09:29;;;;;;;8.68;3.40;;;10.10;98.80;;;;;;4985985;28;20698;-69
2024/01/23 13:11:56;;;;;;;11.43;3.40;;;10.30;99.20;;;;;;4992620;28;20785;-68
2024/01/23 13:14:23;;;;;;;10.80;3.40;;;10.50;97.20;;;;;;4990879;28;20414;-68
2024/01/23 13:16:50;;;;;;;10.20;3.45;;;10.60;96.50;;;;;;4992004;28;20418;-75
2024/01/23 13:19:17;;;;;;;10.30;3.55;;;10.50;95.30;;;;;;4992808;28;20418;-75
2024/01/23 13:21:44;;;;;;;8.85;3.28;;;10.40;94.70;;;;;;4993867;28;20513;-75
2024/01/23 13:24:10;;;;;;;10.18;3.95;;;10.30;95.50;;;;;;4992531;28;20420;-75
2024/01/23 13:26:39;;;;;;;13.20;4.00;;;10.20;95.70;;;;;;4987561;28;20418;-73
2024/01/23 13:29:08;;;;;;;11.15;3.10;;;10.20;96.30;;;;;;4993316;28;20481;-76
2024/01/23 13:31:35;;;;;;;9.65;3.10;;;10.20;95.30;;;;;;4986546;28;20422;-74
2024/01/23 13:34:02;;;;;;;9.90;3.60;;;10.20;95.50;;;;;;4992430;28;20438;-74
2024/01/23 13:36:29;;;;;;;12.68;3.08;;;10.10;95.90;;;;;;4993980;28;20422;-74
2024/01/23 13:38:56;;;;;;;10.98;3.40;;;10.00;95.50;;;;;;4992799;28;20432;-74
2024/01/23 13:41:22;;;;;;;11.63;3.40;;;10.00;95.80;;;;;;4992287;28;20437;-76
2024/01/23 13:43:51;;;;;;;8.90;2.55;;;10.00;96.00;;;;;;4991505;28;20473;-74
2024/01/23 13:46:17;;;;;;;8.32;2.90;;;9.90;96.10;;;;;;4991587;28;20908;-74
2024/01/23 13:48:44;;;;;;;12.20;3.33;;;9.90;97.10;;;;;;4990394;28;20425;-75
2024/01/23 13:51:11;;;;;;;8.73;2.92;;;9.90;96.40;;;;;;4991945;28;20871;-74
2024/01/23 13:53:37;;;;;;;8.15;3.10;;;9.90;96.40;;;;;;4994487;28;20429;-74
2024/01/23 13:56:06;;;;;;;8.23;3.00;;;9.90;96.50;;;;;;4993431;28;20434;-74
2024/01/23 13:58:33;;;;;;;8.88;3.17;;;10.00;96.60;;;;;;4987426;28;20441;-74
2024/01/23 14:01:01;;;;;;;8.10;3.00;;;10.00;96.60;;;;;;4991206;28;20414;-74
2024/01/23 14:03:27;;;;;;;11.50;3.00;;;10.00;96.60;;;;;;4996830;28;20418;-73
2024/01/23 14:05:54;;;;;;;11.48;4.90;;;10.00;96.30;;;;;;4991009;28;20414;-74
2024/01/23 14:08:21;;;;;;;10.05;2.75;;;10.00;96.50;;;;;;4990041;28;20422;-74
2024/01/23 14:10:48;;;;;;;11.40;4.20;;;10.00;96.30;;;;;;4985371;28;20806;-74
2024/01/23 14:13:15;;;;;;;11.20;3.40;;;10.00;96.50;;;;;;4990331;28;20517;-74
2024/01/23 14:15:41;;;;;;;12.95;4.15;;;10.00;96.50;;;;;;4991566;28;20458;-75
2024/01/23 14:18:10;;;;;;;7.25;2.83;;;10.00;95.90;;;;;;4990751;28;20721;-74
2024/01/23 14:20:37;;;;;;;8.18;3.13;;;10.00;96.40;;;;;;4989521;28;20481;-75
2024/01/23 14:23:04;;;;;;;8.68;2.90;;;9.90;96.10;;;;;;4991177;28;20421;-74
2024/01/23 14:25:31;;;;;;;10.07;3.47;;;9.90;96.60;;;;;;4990433;28;20809;-73
2024/01/23 14:27:58;;;;;;;10.98;3.30;;;9.90;96.90;;;;;;4990619;28;20418;-74
2024/01/23 14:30:25;;;;;;;10.23;2.90;;;9.90;97.40;;;;;;4995326;28;20477;-75
2024/01/23 14:32:51;;;;;;;8.88;3.53;;;9.90;96.80;;;;;;4990282;28;20438;-75
2024/01/23 14:35:20;;;;;;;11.10;3.30;;;9.80;97.90;;;;;;4991439;28;21042;-74
2024/01/23 14:37:47;;;;;;;6.72;3.35;;;9.80;97.70;;;;;;4994656;28;20468;-75
2024/01/23 14:40:16;;;;;;;10.43;3.22;;;9.80;98.40;;;;;;4993219;28;20420;-74
2024/01/23 14:42:43;;;;;;;12.15;3.78;;;9.80;98.90;;;;;;4991062;28;20908;-74
2024/01/23 14:45:10;;;;;;;8.15;2.92;;;9.70;99.20;;;;;;4989810;28;20437;-75
2024/01/23 14:47:39;;;;;;;8.98;2.92;;;9.60;99.90;;;;;;4990058;28;20434;-75
2024/01/23 14:50:07;;;;;;;9.55;3.10;;;9.50;99.90;;;;;;4994797;28;20435;-75
2024/01/23 14:52:37;;;;;;;12.38;3.50;;;9.40;99.90;;;;;;4983223;28;20493;-76
2024/01/23 14:55:05;;;;;;;9.48;3.47;;;9.20;99.90;;;;;;4991019;28;20418;-76
2024/01/23 14:57:32;;;;;;;12.02;3.50;;;8.80;99.90;;;;;;4991590;28;20410;-74
2024/01/23 14:59:59;;;;;;;9.70;3.33;;;8.60;99.90;;;;;;4990734;28;20435;-76
2024/01/23 15:02:25;;;;;;;12.00;3.63;;;8.40;99.90;;;;;;4993547;28;20427;-77
2024/01/23 15:04:53;;;;;;;13.20;4.10;;;8.20;99.90;;;;;;4991147;28;20916;-77
2024/01/23 15:07:20;;;;;;;10.65;3.65;;;8.10;99.90;;;;;;4995049;28;20482;-76
2024/01/23 15:09:48;;;;;;;13.95;3.47;;;8.00;99.90;;;;;;5000157;28;20437;-77
2024/01/23 15:12:15;;;;;;;13.40;4.63;;;7.90;99.90;;;;;;5016801;22;20515;-66
2024/01/23 15:14:41;;;;;;;12.70;4.72;;;7.80;99.90;;;;;;5009898;28;20420;-64
2024/01/23 15:17:10;;;;;;;15.65;4.10;;;7.70;99.90;;;;;;5010121;28;20704;-67
2024/01/23 15:19:37;;;;;;;12.55;3.60;;;7.70;99.90;;;;;;5009400;28;20582;-67
2024/01/23 15:22:04;;;;;;;12.52;4.10;;;7.60;99.90;;;;;;4992485;28;20895;-70
2024/01/23 15:24:31;;;;;;;12.55;4.43;;;7.60;99.90;;;;;;4984769;28;20426;-68
2024/01/23 15:26:59;;;;;;;15.05;4.28;;;7.60;99.90;;;;;;4984405;28;20452;-67
2024/01/23 15:29:27;;;;;;;13.63;4.00;;;7.50;99.90;;;;;;4984500;28;20422;-66
2024/01/23 15:31:53;;;;;;;11.13;4.88;;;7.50;99.90;;;;;;4983475;28;20529;-67
2024/01/23 15:34:20;;;;;;;14.75;4.70;;;7.50;99.90;;;;;;4981114;28;20932;-67
2024/01/23 15:36:47;;;;;;;12.32;4.47;;;7.40;99.90;;;;;;4982243;28;20536;-65
2024/01/23 15:39:15;;;;;;;14.98;4.47;;;7.40;99.90;;;;;;4984452;28;20426;-67
2024/01/23 15:41:42;;;;;;;16.80;4.70;;;7.40;99.90;;;;;;4981893;28;20447;-68
2024/01/23 15:44:10;;;;;;;12.98;4.20;;;7.30;99.90;;;;;;4984992;28;20418;-66
2024/01/23 15:46:36;;;;;;;17.17;5.20;;;7.30;99.90;;;;;;4981897;28;20422;-67
2024/01/23 15:49:03;;;;;;;12.10;4.32;;;7.30;99.90;;;;;;4984948;28;21047;-67
2024/01/23 15:51:30;;;;;;;14.00;4.68;;;7.30;99.90;;;;;;4985381;28;20727;-67
2024/01/23 15:53:58;;;;;;;15.90;5.13;;;7.20;99.90;;;;;;4985761;28;20414;-66
2024/01/23 15:56:25;;;;;;;16.60;4.25;;;7.20;99.90;;;;;;4984995;28;20450;-68
2024/01/23 15:58:55;;;;;;;11.20;4.10;;;7.20;99.90;;;;;;4988040;28;20429;-68
2024/01/23 16:01:23;;;;;;;13.90;5.22;;;7.20;99.90;;;;;;4985224;28;20824;-67
2024/01/23 16:03:50;;;;;;;12.68;4.88;;;7.20;99.90;;;;;;4997159;28;20500;-68
2024/01/23 16:06:17;;;;;;;14.85;4.72;;;7.20;99.90;;;;;;4985097;28;20422;-68
2024/01/23 16:08:44;;;;;;;13.13;5.05;;;7.20;99.90;;;;;;4984446;28;20450;-68
2024/01/23 16:11:11;;;;;;;15.05;5.00;;;7.20;99.90;;;;;;4985528;28;20946;-69
2024/01/23 16:13:37;;;;;;;16.13;5.30;;;7.20;99.90;;;;;;4983407;28;20529;-67
2024/01/23 16:16:05;;;;;;;13.80;4.80;;;7.20;99.90;;;;;;4984192;28;20426;-67
2024/01/23 16:18:33;;;;;;;15.27;6.67;;;7.20;99.90;;;;;;4976939;28;20544;-68
2024/01/23 16:21:00;;;;;;;13.13;4.60;;;7.20;99.90;;;;;;4981269;28;20479;-68
2024/01/23 16:23:27;;;;;;;16.42;5.80;;;7.20;99.90;;;;;;4984492;28;20436;-67
2024/01/23 16:25:55;;;;;;;14.55;4.70;;;7.20;99.90;;;;;;4985144;28;20418;-67
2024/01/23 16:28:22;;;;;;;11.55;4.65;;;7.20;99.90;;;;;;4983339;28;20465;-67
2024/01/23 16:30:48;;;;;;;12.45;4.80;;;7.20;99.90;;;;;;4982998;28;20481;-68
2024/01/23 16:33:15;;;;;;;13.90;4.60;;;7.20;99.90;;;;;;4983423;28;20911;-68
2024/01/23 16:35:43;;;;;;;11.18;3.88;;;7.20;99.90;;;;;;4984524;28;20410;-65
2024/01/23 16:38:10;;;;;;;9.38;3.67;;;7.10;99.90;;;;;;4983933;28;20425;-66
2024/01/23 16:40:37;;;;;;;14.27;4.07;;;7.10;99.90;;;;;;4985069;28;20410;-66
2024/01/23 16:43:04;;;;;;;10.27;3.53;;;7.20;99.90;;;;;;4984374;28;20899;-66
2024/01/23 16:45:30;;;;;;;14.50;4.57;;;7.10;99.90;;;;;;4983121;28;20423;-64
2024/01/23 16:47:57;;;;;;;10.20;3.47;;;7.20;99.90;;;;;;4984282;28;20449;-65
2024/01/23 16:50:24;;;;;;;9.80;4.20;;;7.20;99.90;;;;;;4984006;28;20559;-65
2024/01/23 16:52:52;;;;;;;6.22;3.25;;;7.20;99.90;;;;;;4992146;28;20783;-66
2024/01/23 16:55:19;;;;;;;10.05;3.28;;;7.20;99.90;;;;;;4981611;28;20410;-66
2024/01/23 16:57:45;;;;;;;6.32;2.42;;;7.20;99.90;;;;;;4982759;28;20437;-65
2024/01/23 17:00:15;;;;;;;6.75;3.03;;;7.20;99.90;;;;;;4983594;28;20445;-65
2024/01/23 17:02:41;;;;;;;8.75;2.70;;;7.20;99.90;;;;;;4984234;28;20480;-64
2024/01/23 17:05:08;;;;;;;7.72;3.13;;;7.20;99.90;;;;;;4984532;28;20621;-66
2024/01/23 17:07:35;;;;;;;9.03;2.77;;;7.20;99.90;;;;;;4983139;28;20457;-66
2024/01/23 17:10:04;;;;;;;7.82;2.97;;;7.30;99.90;;;;;;4984686;28;20422;-66
2024/01/23 17:12:31;;;;;;;6.53;2.90;;;7.30;99.90;;;;;;4985130;28;20738;-66
2024/01/23 17:14:58;;;;;;;7.33;3.00;;;7.30;99.90;;;;;;4987705;28;20453;-68
2024/01/23 17:17:25;;;;;;;8.27;3.03;;;7.30;99.90;;;;;;4987400;28;20749;-66
2024/01/23 17:19:51;;;;;;;7.68;2.33;;;7.30;99.90;;;;;;4989851;28;20441;-66
2024/01/23 17:22:19;;;;;;;6.03;2.92;;;7.30;99.90;;;;;;4984012;28;20442;-65
2024/01/23 17:24:46;;;;;;;10.07;3.20;;;7.30;99.90;;;;;;4990810;28;20895;-65
2024/01/23 17:27:14;;;;;;;7.03;2.90;;;7.40;99.90;;;;;;4991712;28;20900;-66
2024/01/23 17:29:41;;;;;;;8.93;3.67;;;7.40;99.90;;;;;;4991210;28;20421;-66
2024/01/23 17:32:08;;;;;;;10.15;3.63;;;7.30;99.90;;;;;;5000139;28;20434;-66
2024/01/23 17:34:35;;;;;;;12.00;3.90;;;7.30;99.90;;;;;;4998878;28;20897;-66
2024/01/23 17:37:02;;;;;;;13.80;3.78;;;7.30;99.90;;;;;;4997683;28;20426;-66
2024/01/23 17:39:29;;;;;;;9.35;3.55;;;7.20;99.90;;;;;;5001847;28;20464;-66
2024/01/23 17:41:56;;;;;;;8.50;4.20;;;7.20;99.90;;;;;;5001026;28;20924;-66
2024/01/23 17:44:25;;;;;;;6.15;3.80;;;7.20;99.90;;;;;;4992615;28;20911;-66
2024/01/23 17:46:52;;;;;;;9.43;3.90;;;7.20;99.90;;;;;;4995801;28;20447;-66
2024/01/23 17:49:18;;;;;;;8.98;3.30;;;7.20;99.90;;;;;;4994779;28;20426;-66
2024/01/23 17:51:45;;;;;;;7.65;3.67;;;7.30;99.90;;;;;;4997036;28;20780;-63
2024/01/23 17:54:12;;;;;;;8.15;3.17;;;7.30;99.90;;;;;;4989904;28;20444;-65
2024/01/23 17:56:39;;;;;;;7.90;2.92;;;7.30;99.90;;;;;;4993758;28;20423;-66
2024/01/23 17:59:06;;;;;;;7.35;3.00;;;7.40;99.90;;;;;;4989101;28;20422;-65
2024/01/23 18:01:35;;;;;;;8.10;3.10;;;7.40;99.90;;;;;;4986354;28;20433;-64
2024/01/23 18:04:01;;;;;;;7.37;3.50;;;7.40;99.90;;;;;;4984087;28;20603;-66
2024/01/23 18:06:28;;;;;;;8.70;3.80;;;7.30;99.90;;;;;;4983681;28;20930;-66
2024/01/23 18:08:55;;;;;;;8.85;2.90;;;7.30;99.90;;;;;;4988676;28;20746;-67
2024/01/23 18:11:22;;;;;;;6.72;3.30;;;7.30;99.90;;;;;;4984962;28;20605;-66
2024/01/23 18:13:50;;;;;;;6.30;2.20;;;7.30;99.90;;;;;;4989024;28;20426;-64
2024/01/23 18:16:17;;;;;;;7.82;2.55;;;7.30;99.90;;;;;;4990743;28;20857;-66
2024/01/23 18:18:45;;;;;;;6.85;2.97;;;7.30;99.90;;;;;;4987958;28;20418;-66